sensor_id;sensor_type;location;lat;lon;timestamp;P1;durP1;ratioP1;P2;durP2;ratioP2
16137;SDS011;8174;43.550;5.206;2022-09-16T00:01:58;3.78;;;2.00;;
16137;SDS011;8174;43.550;5.206;2022-09-16T00:04:28;4.57;;;2.35;;
16137;SDS011;8174;43.550;5.206;2022-09-16T00:06:55;2.47;;;1.70;;
16137;SDS011;8174;43.550;5.206;2022-09-16T00:09:23;3.85;;;2.00;;
16137;SDS011;8174;43.550;5.206;2022-09-16T00:11:50;5.22;;;1.83;;
16137;SDS011;8174;43.550;5.206;2022-09-16T00:14:17;4.32;;;1.77;;
16137;SDS011;8174;43.550;5.206;2022-09-16T00:16:46;5.90;;;2.25;;
16137;SDS011;8174;43.550;5.206;2022-09-16T00:19:14;3.30;;;1.90;;
16137;SDS011;8174;43.550;5.206;2022-09-16T00:21:43;3.60;;;1.90;;
16137;SDS011;8174;43.550;5.206;2022-09-16T00:24:13;3.25;;;1.90;;
16137;SDS011;8174;43.550;5.206;2022-09-16T00:26:40;3.80;;;1.80;;
16137;SDS011;8174;43.550;5.206;2022-09-16T00:29:08;3.20;;;1.70;;
16137;SDS011;8174;43.550;5.206;2022-09-16T00:31:35;4.05;;;1.60;;
16137;SDS011;8174;43.550;5.206;2022-09-16T00:34:04;4.20;;;1.70;;
16137;SDS011;8174;43.550;5.206;2022-09-16T00:36:32;3.65;;;1.83;;
16137;SDS011;8174;43.550;5.206;2022-09-16T00:38:59;5.10;;;1.70;;
16137;SDS011;8174;43.550;5.206;2022-09-16T00:41:28;3.85;;;1.65;;
16137;SDS011;8174;43.550;5.206;2022-09-16T00:43:58;6.20;;;2.10;;
16137;SDS011;8174;43.550;5.206;2022-09-16T00:46:27;2.28;;;1.77;;
16137;SDS011;8174;43.550;5.206;2022-09-16T00:48:57;4.43;;;1.80;;
16137;SDS011;8174;43.550;5.206;2022-09-16T00:51:26;3.90;;;1.70;;
16137;SDS011;8174;43.550;5.206;2022-09-16T00:53:56;3.55;;;1.90;;
16137;SDS011;8174;43.550;5.206;2022-09-16T00:56:26;3.53;;;1.80;;
16137;SDS011;8174;43.550;5.206;2022-09-16T00:58:55;6.15;;;1.92;;
16137;SDS011;8174;43.550;5.206;2022-09-16T01:01:26;4.18;;;1.88;;
16137;SDS011;8174;43.550;5.206;2022-09-16T01:03:55;2.92;;;1.92;;
16137;SDS011;8174;43.550;5.206;2022-09-16T01:06:27;3.45;;;2.10;;
16137;SDS011;8174;43.550;5.206;2022-09-16T01:08:55;5.43;;;1.77;;
16137;SDS011;8174;43.550;5.206;2022-09-16T01:11:23;3.10;;;2.05;;
16137;SDS011;8174;43.550;5.206;2022-09-16T01:13:51;2.47;;;1.83;;
16137;SDS011;8174;43.550;5.206;2022-09-16T01:16:19;5.32;;;2.00;;
16137;SDS011;8174;43.550;5.206;2022-09-16T01:18:53;4.95;;;1.92;;
16137;SDS011;8174;43.550;5.206;2022-09-16T01:21:29;4.55;;;1.80;;
16137;SDS011;8174;43.550;5.206;2022-09-16T01:27:00;2.97;;;2.00;;
16137;SDS011;8174;43.550;5.206;2022-09-16T01:32:28;4.30;;;1.88;;
16137;SDS011;8174;43.550;5.206;2022-09-16T01:35:01;4.78;;;1.90;;
16137;SDS011;8174;43.550;5.206;2022-09-16T01:37:32;3.65;;;1.80;;
16137;SDS011;8174;43.550;5.206;2022-09-16T01:40:03;3.45;;;1.85;;
16137;SDS011;8174;43.550;5.206;2022-09-16T01:42:35;4.40;;;1.92;;
16137;SDS011;8174;43.550;5.206;2022-09-16T01:45:05;3.60;;;1.80;;
16137;SDS011;8174;43.550;5.206;2022-09-16T01:47:37;3.05;;;1.80;;
16137;SDS011;8174;43.550;5.206;2022-09-16T01:50:10;3.75;;;1.80;;
16137;SDS011;8174;43.550;5.206;2022-09-16T01:52:44;2.83;;;2.10;;
16137;SDS011;8174;43.550;5.206;2022-09-16T01:55:13;3.58;;;1.73;;
16137;SDS011;8174;43.550;5.206;2022-09-16T01:57:44;4.65;;;1.90;;
16137;SDS011;8174;43.550;5.206;2022-09-16T02:00:14;3.50;;;1.75;;
16137;SDS011;8174;43.550;5.206;2022-09-16T02:02:44;3.28;;;1.95;;
16137;SDS011;8174;43.550;5.206;2022-09-16T02:05:14;3.83;;;1.98;;
16137;SDS011;8174;43.550;5.206;2022-09-16T02:07:43;3.35;;;1.80;;
16137;SDS011;8174;43.550;5.206;2022-09-16T02:10:16;2.70;;;1.80;;
16137;SDS011;8174;43.550;5.206;2022-09-16T02:12:47;5.13;;;2.20;;
16137;SDS011;8174;43.550;5.206;2022-09-16T02:15:16;3.40;;;1.80;;
16137;SDS011;8174;43.550;5.206;2022-09-16T02:17:50;4.20;;;1.85;;
16137;SDS011;8174;43.550;5.206;2022-09-16T02:20:22;3.40;;;1.80;;
16137;SDS011;8174;43.550;5.206;2022-09-16T02:22:53;6.38;;;2.10;;
16137;SDS011;8174;43.550;5.206;2022-09-16T02:25:26;4.47;;;1.95;;
16137;SDS011;8174;43.550;5.206;2022-09-16T02:27:57;4.53;;;1.80;;
16137;SDS011;8174;43.550;5.206;2022-09-16T02:30:27;6.07;;;1.98;;
16137;SDS011;8174;43.550;5.206;2022-09-16T02:32:57;3.88;;;2.05;;
16137;SDS011;8174;43.550;5.206;2022-09-16T02:35:25;2.45;;;1.80;;
16137;SDS011;8174;43.550;5.206;2022-09-16T02:37:56;3.92;;;1.65;;
16137;SDS011;8174;43.550;5.206;2022-09-16T02:40:26;5.90;;;2.00;;
16137;SDS011;8174;43.550;5.206;2022-09-16T02:42:55;2.53;;;1.60;;
16137;SDS011;8174;43.550;5.206;2022-09-16T02:45:25;3.75;;;1.90;;
16137;SDS011;8174;43.550;5.206;2022-09-16T02:47:59;4.43;;;2.05;;
16137;SDS011;8174;43.550;5.206;2022-09-16T02:50:30;3.65;;;1.88;;
16137;SDS011;8174;43.550;5.206;2022-09-16T02:53:00;3.65;;;1.90;;
16137;SDS011;8174;43.550;5.206;2022-09-16T02:55:30;5.53;;;1.98;;
16137;SDS011;8174;43.550;5.206;2022-09-16T02:58:02;4.55;;;2.00;;
16137;SDS011;8174;43.550;5.206;2022-09-16T03:00:30;5.50;;;2.17;;
16137;SDS011;8174;43.550;5.206;2022-09-16T03:03:00;4.50;;;1.90;;
16137;SDS011;8174;43.550;5.206;2022-09-16T03:05:28;4.22;;;1.80;;
16137;SDS011;8174;43.550;5.206;2022-09-16T03:07:55;2.92;;;1.88;;
16137;SDS011;8174;43.550;5.206;2022-09-16T03:10:35;3.95;;;2.05;;
16137;SDS011;8174;43.550;5.206;2022-09-16T03:13:18;5.15;;;1.98;;
16137;SDS011;8174;43.550;5.206;2022-09-16T03:15:51;3.75;;;1.88;;
16137;SDS011;8174;43.550;5.206;2022-09-16T03:18:31;4.82;;;2.10;;
16137;SDS011;8174;43.550;5.206;2022-09-16T03:21:05;3.75;;;1.80;;
16137;SDS011;8174;43.550;5.206;2022-09-16T03:23:55;3.70;;;2.05;;
16137;SDS011;8174;43.550;5.206;2022-09-16T03:26:29;3.15;;;1.80;;
16137;SDS011;8174;43.550;5.206;2022-09-16T03:29:01;3.85;;;2.10;;
16137;SDS011;8174;43.550;5.206;2022-09-16T03:31:34;3.17;;;1.88;;
16137;SDS011;8174;43.550;5.206;2022-09-16T03:34:09;3.53;;;2.00;;
16137;SDS011;8174;43.550;5.206;2022-09-16T03:36:41;4.18;;;2.00;;
16137;SDS011;8174;43.550;5.206;2022-09-16T03:39:10;3.67;;;2.13;;
16137;SDS011;8174;43.550;5.206;2022-09-16T03:41:38;5.13;;;1.98;;
16137;SDS011;8174;43.550;5.206;2022-09-16T03:44:06;5.47;;;2.58;;
16137;SDS011;8174;43.550;5.206;2022-09-16T03:46:34;4.63;;;1.90;;
16137;SDS011;8174;43.550;5.206;2022-09-16T03:49:01;3.35;;;1.90;;
16137;SDS011;8174;43.550;5.206;2022-09-16T03:51:30;3.75;;;2.20;;
16137;SDS011;8174;43.550;5.206;2022-09-16T03:53:58;7.45;;;2.10;;
16137;SDS011;8174;43.550;5.206;2022-09-16T03:56:25;3.92;;;1.85;;
16137;SDS011;8174;43.550;5.206;2022-09-16T03:58:53;4.53;;;2.13;;
16137;SDS011;8174;43.550;5.206;2022-09-16T04:01:21;3.58;;;2.17;;
16137;SDS011;8174;43.550;5.206;2022-09-16T04:03:48;3.53;;;2.42;;
16137;SDS011;8174;43.550;5.206;2022-09-16T04:06:16;6.57;;;2.35;;
16137;SDS011;8174;43.550;5.206;2022-09-16T04:08:45;4.00;;;2.20;;
16137;SDS011;8174;43.550;5.206;2022-09-16T04:11:14;4.82;;;2.15;;
16137;SDS011;8174;43.550;5.206;2022-09-16T04:13:42;5.65;;;2.60;;
16137;SDS011;8174;43.550;5.206;2022-09-16T04:16:10;5.55;;;2.58;;
16137;SDS011;8174;43.550;5.206;2022-09-16T04:18:38;4.90;;;2.20;;
16137;SDS011;8174;43.550;5.206;2022-09-16T04:21:05;3.80;;;2.25;;
16137;SDS011;8174;43.550;5.206;2022-09-16T04:23:33;3.53;;;2.10;;
16137;SDS011;8174;43.550;5.206;2022-09-16T04:26:02;4.93;;;2.38;;
16137;SDS011;8174;43.550;5.206;2022-09-16T04:28:32;2.88;;;2.15;;
16137;SDS011;8174;43.550;5.206;2022-09-16T04:31:03;4.38;;;1.90;;
16137;SDS011;8174;43.550;5.206;2022-09-16T04:33:33;4.63;;;2.22;;
16137;SDS011;8174;43.550;5.206;2022-09-16T04:36:01;6.45;;;2.60;;
16137;SDS011;8174;43.550;5.206;2022-09-16T04:38:29;5.20;;;2.50;;
16137;SDS011;8174;43.550;5.206;2022-09-16T04:41:02;3.22;;;2.05;;
16137;SDS011;8174;43.550;5.206;2022-09-16T04:43:30;4.80;;;2.13;;
16137;SDS011;8174;43.550;5.206;2022-09-16T04:45:58;5.30;;;2.22;;
16137;SDS011;8174;43.550;5.206;2022-09-16T04:48:26;7.00;;;2.47;;
16137;SDS011;8174;43.550;5.206;2022-09-16T04:50:53;3.95;;;2.22;;
16137;SDS011;8174;43.550;5.206;2022-09-16T04:53:21;3.67;;;2.17;;
16137;SDS011;8174;43.550;5.206;2022-09-16T04:55:48;7.32;;;2.40;;
16137;SDS011;8174;43.550;5.206;2022-09-16T04:58:17;5.50;;;2.60;;
16137;SDS011;8174;43.550;5.206;2022-09-16T05:00:45;4.38;;;2.20;;
16137;SDS011;8174;43.550;5.206;2022-09-16T05:03:13;6.78;;;2.13;;
16137;SDS011;8174;43.550;5.206;2022-09-16T05:05:41;4.20;;;2.50;;
16137;SDS011;8174;43.550;5.206;2022-09-16T05:08:08;4.22;;;2.88;;
16137;SDS011;8174;43.550;5.206;2022-09-16T05:10:36;4.18;;;2.30;;
16137;SDS011;8174;43.550;5.206;2022-09-16T05:13:03;6.50;;;2.83;;
16137;SDS011;8174;43.550;5.206;2022-09-16T05:15:34;7.00;;;3.38;;
16137;SDS011;8174;43.550;5.206;2022-09-16T05:18:01;4.43;;;2.45;;
16137;SDS011;8174;43.550;5.206;2022-09-16T05:20:30;6.75;;;2.60;;
16137;SDS011;8174;43.550;5.206;2022-09-16T05:23:03;5.05;;;2.38;;
16137;SDS011;8174;43.550;5.206;2022-09-16T05:25:32;5.15;;;2.40;;
16137;SDS011;8174;43.550;5.206;2022-09-16T05:27:59;9.23;;;2.40;;
16137;SDS011;8174;43.550;5.206;2022-09-16T05:30:27;5.40;;;2.33;;
16137;SDS011;8174;43.550;5.206;2022-09-16T05:32:57;4.60;;;2.13;;
16137;SDS011;8174;43.550;5.206;2022-09-16T05:35:25;4.55;;;2.50;;
16137;SDS011;8174;43.550;5.206;2022-09-16T05:37:55;7.50;;;4.43;;
16137;SDS011;8174;43.550;5.206;2022-09-16T05:40:23;3.75;;;2.25;;
16137;SDS011;8174;43.550;5.206;2022-09-16T05:42:51;3.05;;;2.03;;
16137;SDS011;8174;43.550;5.206;2022-09-16T05:45:19;3.08;;;2.10;;
16137;SDS011;8174;43.550;5.206;2022-09-16T05:47:46;5.43;;;2.25;;
16137;SDS011;8174;43.550;5.206;2022-09-16T05:50:16;3.60;;;2.00;;
16137;SDS011;8174;43.550;5.206;2022-09-16T05:52:43;3.03;;;1.80;;
16137;SDS011;8174;43.550;5.206;2022-09-16T05:55:11;6.25;;;2.25;;
16137;SDS011;8174;43.550;5.206;2022-09-16T05:57:38;4.30;;;2.45;;
16137;SDS011;8174;43.550;5.206;2022-09-16T06:00:06;3.33;;;2.10;;
16137;SDS011;8174;43.550;5.206;2022-09-16T06:02:34;4.90;;;1.92;;
16137;SDS011;8174;43.550;5.206;2022-09-16T06:05:02;6.90;;;2.80;;
16137;SDS011;8174;43.550;5.206;2022-09-16T06:07:31;6.32;;;2.70;;
16137;SDS011;8174;43.550;5.206;2022-09-16T06:09:58;2.72;;;2.33;;
16137;SDS011;8174;43.550;5.206;2022-09-16T06:12:26;3.78;;;1.98;;
16137;SDS011;8174;43.550;5.206;2022-09-16T06:14:53;5.97;;;2.30;;
16137;SDS011;8174;43.550;5.206;2022-09-16T06:17:21;5.90;;;2.63;;
16137;SDS011;8174;43.550;5.206;2022-09-16T06:19:48;3.08;;;2.20;;
16137;SDS011;8174;43.550;5.206;2022-09-16T06:22:16;8.13;;;2.28;;
16137;SDS011;8174;43.550;5.206;2022-09-16T06:24:45;2.95;;;1.95;;
16137;SDS011;8174;43.550;5.206;2022-09-16T06:27:13;5.00;;;2.03;;
16137;SDS011;8174;43.550;5.206;2022-09-16T06:29:40;3.38;;;1.80;;
16137;SDS011;8174;43.550;5.206;2022-09-16T06:32:07;3.97;;;2.00;;
16137;SDS011;8174;43.550;5.206;2022-09-16T06:34:35;2.45;;;1.60;;
16137;SDS011;8174;43.550;5.206;2022-09-16T06:37:02;3.80;;;2.00;;
16137;SDS011;8174;43.550;5.206;2022-09-16T06:39:30;5.75;;;1.70;;
16137;SDS011;8174;43.550;5.206;2022-09-16T06:41:59;5.88;;;1.90;;
16137;SDS011;8174;43.550;5.206;2022-09-16T06:44:27;3.25;;;1.52;;
16137;SDS011;8174;43.550;5.206;2022-09-16T06:46:54;4.43;;;1.77;;
16137;SDS011;8174;43.550;5.206;2022-09-16T06:49:22;3.22;;;1.80;;
16137;SDS011;8174;43.550;5.206;2022-09-16T06:51:50;3.17;;;1.80;;
16137;SDS011;8174;43.550;5.206;2022-09-16T06:54:17;3.20;;;1.80;;
16137;SDS011;8174;43.550;5.206;2022-09-16T06:56:45;5.13;;;1.50;;
16137;SDS011;8174;43.550;5.206;2022-09-16T06:59:15;3.83;;;1.70;;
16137;SDS011;8174;43.550;5.206;2022-09-16T07:01:42;5.30;;;1.70;;
16137;SDS011;8174;43.550;5.206;2022-09-16T07:04:10;6.38;;;1.50;;
16137;SDS011;8174;43.550;5.206;2022-09-16T07:06:38;4.78;;;1.92;;
16137;SDS011;8174;43.550;5.206;2022-09-16T07:09:06;4.97;;;1.50;;
16137;SDS011;8174;43.550;5.206;2022-09-16T07:11:34;5.22;;;1.48;;
16137;SDS011;8174;43.550;5.206;2022-09-16T07:14:02;4.10;;;1.58;;
16137;SDS011;8174;43.550;5.206;2022-09-16T07:16:31;4.05;;;1.83;;
16137;SDS011;8174;43.550;5.206;2022-09-16T07:18:59;3.38;;;1.48;;
16137;SDS011;8174;43.550;5.206;2022-09-16T07:21:27;4.00;;;1.40;;
16137;SDS011;8174;43.550;5.206;2022-09-16T07:23:55;6.68;;;2.10;;
16137;SDS011;8174;43.550;5.206;2022-09-16T07:26:23;3.72;;;1.70;;
16137;SDS011;8174;43.550;5.206;2022-09-16T07:28:54;3.58;;;1.67;;
16137;SDS011;8174;43.550;5.206;2022-09-16T07:31:22;4.55;;;1.77;;
16137;SDS011;8174;43.550;5.206;2022-09-16T07:33:52;4.18;;;1.50;;
16137;SDS011;8174;43.550;5.206;2022-09-16T07:36:20;10.88;;;1.80;;
16137;SDS011;8174;43.550;5.206;2022-09-16T07:38:48;5.05;;;2.03;;
16137;SDS011;8174;43.550;5.206;2022-09-16T07:41:17;5.97;;;2.28;;
16137;SDS011;8174;43.550;5.206;2022-09-16T07:43:45;8.65;;;1.75;;
16137;SDS011;8174;43.550;5.206;2022-09-16T07:46:13;3.85;;;1.50;;
16137;SDS011;8174;43.550;5.206;2022-09-16T07:48:42;6.10;;;2.00;;
16137;SDS011;8174;43.550;5.206;2022-09-16T07:51:12;3.47;;;1.80;;
16137;SDS011;8174;43.550;5.206;2022-09-16T07:53:39;3.42;;;1.70;;
16137;SDS011;8174;43.550;5.206;2022-09-16T07:56:12;2.65;;;1.73;;
16137;SDS011;8174;43.550;5.206;2022-09-16T07:58:40;7.47;;;1.90;;
16137;SDS011;8174;43.550;5.206;2022-09-16T08:01:10;7.93;;;1.90;;
16137;SDS011;8174;43.550;5.206;2022-09-16T08:03:38;3.97;;;1.67;;
16137;SDS011;8174;43.550;5.206;2022-09-16T08:06:06;2.85;;;1.70;;
16137;SDS011;8174;43.550;5.206;2022-09-16T08:08:36;8.35;;;1.98;;
16137;SDS011;8174;43.550;5.206;2022-09-16T08:11:04;3.65;;;1.90;;
16137;SDS011;8174;43.550;5.206;2022-09-16T08:13:32;4.38;;;1.80;;
16137;SDS011;8174;43.550;5.206;2022-09-16T08:16:01;4.53;;;1.80;;
16137;SDS011;8174;43.550;5.206;2022-09-16T08:18:29;3.70;;;1.88;;
16137;SDS011;8174;43.550;5.206;2022-09-16T08:20:57;9.18;;;2.22;;
16137;SDS011;8174;43.550;5.206;2022-09-16T08:23:25;5.80;;;2.33;;
16137;SDS011;8174;43.550;5.206;2022-09-16T08:25:57;4.78;;;1.88;;
16137;SDS011;8174;43.550;5.206;2022-09-16T08:28:25;6.88;;;2.05;;
16137;SDS011;8174;43.550;5.206;2022-09-16T08:30:53;6.88;;;2.00;;
16137;SDS011;8174;43.550;5.206;2022-09-16T08:33:21;3.63;;;1.90;;
16137;SDS011;8174;43.550;5.206;2022-09-16T08:35:56;3.92;;;2.03;;
16137;SDS011;8174;43.550;5.206;2022-09-16T08:38:24;4.93;;;2.22;;
16137;SDS011;8174;43.550;5.206;2022-09-16T08:40:51;5.30;;;2.38;;
16137;SDS011;8174;43.550;5.206;2022-09-16T08:43:24;3.92;;;1.80;;
16137;SDS011;8174;43.550;5.206;2022-09-16T08:45:57;3.60;;;2.17;;
16137;SDS011;8174;43.550;5.206;2022-09-16T08:48:28;4.90;;;2.10;;
16137;SDS011;8174;43.550;5.206;2022-09-16T08:50:57;6.07;;;2.50;;
16137;SDS011;8174;43.550;5.206;2022-09-16T08:53:28;4.63;;;2.50;;
16137;SDS011;8174;43.550;5.206;2022-09-16T08:56:00;7.78;;;2.13;;
16137;SDS011;8174;43.550;5.206;2022-09-16T08:58:33;4.15;;;2.38;;
16137;SDS011;8174;43.550;5.206;2022-09-16T09:01:03;4.97;;;2.50;;
16137;SDS011;8174;43.550;5.206;2022-09-16T09:03:34;5.50;;;2.55;;
16137;SDS011;8174;43.550;5.206;2022-09-16T09:06:05;2.90;;;2.60;;
16137;SDS011;8174;43.550;5.206;2022-09-16T09:08:37;6.07;;;2.60;;
16137;SDS011;8174;43.550;5.206;2022-09-16T09:11:08;7.47;;;3.20;;
16137;SDS011;8174;43.550;5.206;2022-09-16T09:16:27;6.97;;;2.92;;
16137;SDS011;8174;43.550;5.206;2022-09-16T09:18:59;3.55;;;2.70;;
16137;SDS011;8174;43.550;5.206;2022-09-16T09:21:30;11.15;;;2.85;;
16137;SDS011;8174;43.550;5.206;2022-09-16T09:26:44;4.65;;;2.83;;
16137;SDS011;8174;43.550;5.206;2022-09-16T09:29:24;8.55;;;2.75;;
16137;SDS011;8174;43.550;5.206;2022-09-16T09:31:56;3.50;;;2.50;;
16137;SDS011;8174;43.550;5.206;2022-09-16T09:34:29;7.63;;;3.22;;
16137;SDS011;8174;43.550;5.206;2022-09-16T09:37:02;7.57;;;2.75;;
16137;SDS011;8174;43.550;5.206;2022-09-16T09:39:34;6.40;;;3.05;;
16137;SDS011;8174;43.550;5.206;2022-09-16T09:42:08;10.48;;;3.15;;
16137;SDS011;8174;43.550;5.206;2022-09-16T09:44:40;3.55;;;2.88;;
16137;SDS011;8174;43.550;5.206;2022-09-16T09:47:14;10.68;;;2.90;;
16137;SDS011;8174;43.550;5.206;2022-09-16T09:49:43;4.43;;;2.60;;
16137;SDS011;8174;43.550;5.206;2022-09-16T09:52:15;5.00;;;2.97;;
16137;SDS011;8174;43.550;5.206;2022-09-16T09:54:44;4.88;;;2.70;;
16137;SDS011;8174;43.550;5.206;2022-09-16T09:57:14;4.78;;;2.78;;
16137;SDS011;8174;43.550;5.206;2022-09-16T09:59:44;5.10;;;2.80;;
16137;SDS011;8174;43.550;5.206;2022-09-16T10:02:15;5.13;;;2.90;;
16137;SDS011;8174;43.550;5.206;2022-09-16T10:04:43;7.28;;;3.10;;
16137;SDS011;8174;43.550;5.206;2022-09-16T10:07:11;8.88;;;3.30;;
16137;SDS011;8174;43.550;5.206;2022-09-16T10:09:44;7.90;;;3.38;;
16137;SDS011;8174;43.550;5.206;2022-09-16T10:12:13;6.85;;;3.50;;
16137;SDS011;8174;43.550;5.206;2022-09-16T10:14:41;4.80;;;3.15;;
16137;SDS011;8174;43.550;5.206;2022-09-16T10:17:13;10.63;;;3.28;;
16137;SDS011;8174;43.550;5.206;2022-09-16T10:19:50;8.52;;;3.30;;
16137;SDS011;8174;43.550;5.206;2022-09-16T10:22:19;14.05;;;3.80;;
16137;SDS011;8174;43.550;5.206;2022-09-16T10:24:52;6.28;;;3.20;;
16137;SDS011;8174;43.550;5.206;2022-09-16T10:27:21;5.60;;;3.30;;
16137;SDS011;8174;43.550;5.206;2022-09-16T10:30:01;9.45;;;3.72;;
16137;SDS011;8174;43.550;5.206;2022-09-16T10:32:29;7.18;;;3.42;;
16137;SDS011;8174;43.550;5.206;2022-09-16T10:35:04;6.68;;;3.83;;
16137;SDS011;8174;43.550;5.206;2022-09-16T10:37:32;10.45;;;3.92;;
16137;SDS011;8174;43.550;5.206;2022-09-16T10:40:00;6.07;;;3.53;;
16137;SDS011;8174;43.550;5.206;2022-09-16T10:42:31;4.70;;;3.75;;
16137;SDS011;8174;43.550;5.206;2022-09-16T10:45:02;7.22;;;3.78;;
16137;SDS011;8174;43.550;5.206;2022-09-16T10:47:31;6.47;;;3.83;;
16137;SDS011;8174;43.550;5.206;2022-09-16T10:50:02;6.72;;;3.50;;
16137;SDS011;8174;43.550;5.206;2022-09-16T10:52:31;13.48;;;3.72;;
16137;SDS011;8174;43.550;5.206;2022-09-16T10:55:11;11.13;;;4.10;;
16137;SDS011;8174;43.550;5.206;2022-09-16T10:57:46;7.28;;;3.55;;
16137;SDS011;8174;43.550;5.206;2022-09-16T11:00:14;8.15;;;3.60;;
16137;SDS011;8174;43.550;5.206;2022-09-16T11:02:50;6.60;;;3.40;;
16137;SDS011;8174;43.550;5.206;2022-09-16T11:05:26;5.55;;;3.53;;
16137;SDS011;8174;43.550;5.206;2022-09-16T11:07:57;6.00;;;3.70;;
16137;SDS011;8174;43.550;5.206;2022-09-16T11:10:29;6.00;;;3.50;;
16137;SDS011;8174;43.550;5.206;2022-09-16T11:13:07;7.22;;;3.70;;
16137;SDS011;8174;43.550;5.206;2022-09-16T11:15:40;6.32;;;3.35;;
16137;SDS011;8174;43.550;5.206;2022-09-16T11:18:13;8.23;;;3.83;;
16137;SDS011;8174;43.550;5.206;2022-09-16T11:21:06;5.63;;;3.92;;
16137;SDS011;8174;43.550;5.206;2022-09-16T11:23:42;5.47;;;3.95;;
16137;SDS011;8174;43.550;5.206;2022-09-16T11:26:14;7.07;;;4.03;;
16137;SDS011;8174;43.550;5.206;2022-09-16T11:28:55;5.53;;;3.33;;
16137;SDS011;8174;43.550;5.206;2022-09-16T11:31:31;11.88;;;3.78;;
16137;SDS011;8174;43.550;5.206;2022-09-16T11:34:02;8.02;;;3.65;;
16137;SDS011;8174;43.550;5.206;2022-09-16T11:36:41;6.07;;;3.50;;
16137;SDS011;8174;43.550;5.206;2022-09-16T11:39:15;4.95;;;3.40;;
16137;SDS011;8174;43.550;5.206;2022-09-16T11:41:48;10.02;;;3.70;;
16137;SDS011;8174;43.550;5.206;2022-09-16T11:44:25;15.77;;;4.32;;
16137;SDS011;8174;43.550;5.206;2022-09-16T11:46:57;7.18;;;3.85;;
16137;SDS011;8174;43.550;5.206;2022-09-16T11:49:32;10.68;;;3.75;;
16137;SDS011;8174;43.550;5.206;2022-09-16T11:52:08;9.55;;;3.28;;
16137;SDS011;8174;43.550;5.206;2022-09-16T11:54:45;6.70;;;3.50;;
16137;SDS011;8174;43.550;5.206;2022-09-16T11:57:17;6.60;;;3.42;;
16137;SDS011;8174;43.550;5.206;2022-09-16T11:59:47;5.40;;;3.35;;
16137;SDS011;8174;43.550;5.206;2022-09-16T12:02:17;5.20;;;3.50;;
16137;SDS011;8174;43.550;5.206;2022-09-16T12:04:47;6.65;;;3.20;;
16137;SDS011;8174;43.550;5.206;2022-09-16T12:07:21;7.90;;;3.45;;
16137;SDS011;8174;43.550;5.206;2022-09-16T12:09:53;4.72;;;3.20;;
16137;SDS011;8174;43.550;5.206;2022-09-16T12:12:22;4.60;;;3.22;;
16137;SDS011;8174;43.550;5.206;2022-09-16T12:14:57;6.00;;;3.60;;
16137;SDS011;8174;43.550;5.206;2022-09-16T12:17:27;5.28;;;3.30;;
16137;SDS011;8174;43.550;5.206;2022-09-16T12:19:56;9.80;;;3.65;;
16137;SDS011;8174;43.550;5.206;2022-09-16T12:22:27;5.72;;;3.63;;
16137;SDS011;8174;43.550;5.206;2022-09-16T12:24:56;6.75;;;3.22;;
16137;SDS011;8174;43.550;5.206;2022-09-16T12:27:31;4.13;;;3.17;;
16137;SDS011;8174;43.550;5.206;2022-09-16T12:30:01;9.07;;;3.47;;
16137;SDS011;8174;43.550;5.206;2022-09-16T12:32:31;3.20;;;2.70;;
16137;SDS011;8174;43.550;5.206;2022-09-16T12:35:01;5.90;;;3.30;;
16137;SDS011;8174;43.550;5.206;2022-09-16T12:37:33;3.65;;;3.20;;
16137;SDS011;8174;43.550;5.206;2022-09-16T12:40:02;4.25;;;2.90;;
16137;SDS011;8174;43.550;5.206;2022-09-16T12:45:21;4.78;;;3.20;;
16137;SDS011;8174;43.550;5.206;2022-09-16T12:47:58;5.50;;;3.05;;
16137;SDS011;8174;43.550;5.206;2022-09-16T12:50:37;3.97;;;2.97;;
16137;SDS011;8174;43.550;5.206;2022-09-16T12:55:58;6.47;;;3.03;;
16137;SDS011;8174;43.550;5.206;2022-09-16T13:01:18;7.43;;;3.38;;
16137;SDS011;8174;43.550;5.206;2022-09-16T13:03:47;5.00;;;3.20;;
16137;SDS011;8174;43.550;5.206;2022-09-16T13:06:18;4.95;;;2.97;;
16137;SDS011;8174;43.550;5.206;2022-09-16T13:08:47;4.28;;;3.00;;
16137;SDS011;8174;43.550;5.206;2022-09-16T13:11:18;4.32;;;3.30;;
16137;SDS011;8174;43.550;5.206;2022-09-16T13:13:47;6.32;;;3.30;;
16137;SDS011;8174;43.550;5.206;2022-09-16T13:16:25;6.68;;;3.40;;
16137;SDS011;8174;43.550;5.206;2022-09-16T13:19:23;5.20;;;3.13;;
16137;SDS011;8174;43.550;5.206;2022-09-16T13:21:42;7.60;;;3.50;;
16137;SDS011;8174;43.550;5.206;2022-09-16T13:24:11;4.55;;;3.58;;
16137;SDS011;8174;43.550;5.206;2022-09-16T13:26:42;17.40;;;7.18;;
16137;SDS011;8174;43.550;5.206;2022-09-16T13:31:52;5.57;;;3.08;;
16137;SDS011;8174;43.550;5.206;2022-09-16T13:34:20;11.23;;;3.40;;
16137;SDS011;8174;43.550;5.206;2022-09-16T13:36:49;7.53;;;2.72;;
16137;SDS011;8174;43.550;5.206;2022-09-16T13:39:26;6.97;;;2.90;;
16137;SDS011;8174;43.550;5.206;2022-09-16T13:41:56;4.13;;;3.10;;
16137;SDS011;8174;43.550;5.206;2022-09-16T13:44:38;6.22;;;3.10;;
16137;SDS011;8174;43.550;5.206;2022-09-16T13:47:16;4.88;;;3.38;;
16137;SDS011;8174;43.550;5.206;2022-09-16T13:49:46;4.72;;;3.22;;
16137;SDS011;8174;43.550;5.206;2022-09-16T13:52:16;5.03;;;3.15;;
16137;SDS011;8174;43.550;5.206;2022-09-16T13:54:46;5.30;;;2.90;;
16137;SDS011;8174;43.550;5.206;2022-09-16T14:00:08;5.43;;;3.03;;
16137;SDS011;8174;43.550;5.206;2022-09-16T14:02:49;9.45;;;3.20;;
16137;SDS011;8174;43.550;5.206;2022-09-16T14:05:25;4.25;;;2.83;;
16137;SDS011;8174;43.550;5.206;2022-09-16T14:07:58;4.03;;;2.55;;
16137;SDS011;8174;43.550;5.206;2022-09-16T14:10:37;3.85;;;2.78;;
16137;SDS011;8174;43.550;5.206;2022-09-16T14:13:08;6.60;;;2.75;;
16137;SDS011;8174;43.550;5.206;2022-09-16T14:15:39;6.55;;;3.00;;
16137;SDS011;8174;43.550;5.206;2022-09-16T14:18:09;6.82;;;2.90;;
16137;SDS011;8174;43.550;5.206;2022-09-16T14:20:38;5.25;;;2.88;;
16137;SDS011;8174;43.550;5.206;2022-09-16T14:23:17;4.13;;;2.72;;
16137;SDS011;8174;43.550;5.206;2022-09-16T14:25:45;3.78;;;2.30;;
16137;SDS011;8174;43.550;5.206;2022-09-16T14:28:14;5.22;;;2.53;;
16137;SDS011;8174;43.550;5.206;2022-09-16T14:30:48;4.30;;;2.58;;
16137;SDS011;8174;43.550;5.206;2022-09-16T14:33:18;5.13;;;2.55;;
16137;SDS011;8174;43.550;5.206;2022-09-16T14:35:48;4.60;;;2.42;;
16137;SDS011;8174;43.550;5.206;2022-09-16T14:38:16;4.00;;;2.10;;
16137;SDS011;8174;43.550;5.206;2022-09-16T14:40:44;4.15;;;2.63;;
16137;SDS011;8174;43.550;5.206;2022-09-16T14:43:14;4.95;;;2.30;;
16137;SDS011;8174;43.550;5.206;2022-09-16T14:45:43;6.75;;;2.58;;
16137;SDS011;8174;43.550;5.206;2022-09-16T14:48:13;4.72;;;2.30;;
16137;SDS011;8174;43.550;5.206;2022-09-16T14:50:42;6.43;;;2.42;;
16137;SDS011;8174;43.550;5.206;2022-09-16T14:53:21;3.85;;;2.25;;
16137;SDS011;8174;43.550;5.206;2022-09-16T14:55:49;4.75;;;2.50;;
16137;SDS011;8174;43.550;5.206;2022-09-16T14:58:17;3.22;;;2.33;;
16137;SDS011;8174;43.550;5.206;2022-09-16T15:00:46;6.18;;;2.58;;
16137;SDS011;8174;43.550;5.206;2022-09-16T15:03:16;6.75;;;2.50;;
16137;SDS011;8174;43.550;5.206;2022-09-16T15:05:46;3.15;;;2.53;;
16137;SDS011;8174;43.550;5.206;2022-09-16T15:08:14;5.75;;;2.40;;
16137;SDS011;8174;43.550;5.206;2022-09-16T15:10:45;2.75;;;2.00;;
16137;SDS011;8174;43.550;5.206;2022-09-16T15:13:13;5.25;;;2.30;;
16137;SDS011;8174;43.550;5.206;2022-09-16T15:15:44;6.10;;;2.50;;
16137;SDS011;8174;43.550;5.206;2022-09-16T15:18:20;5.88;;;3.10;;
16137;SDS011;8174;43.550;5.206;2022-09-16T15:20:52;3.88;;;2.50;;
16137;SDS011;8174;43.550;5.206;2022-09-16T15:23:21;4.72;;;3.35;;
16137;SDS011;8174;43.550;5.206;2022-09-16T15:25:50;4.55;;;2.53;;
16137;SDS011;8174;43.550;5.206;2022-09-16T15:28:19;5.60;;;2.28;;
16137;SDS011;8174;43.550;5.206;2022-09-16T15:30:48;3.97;;;2.42;;
16137;SDS011;8174;43.550;5.206;2022-09-16T15:33:22;5.60;;;2.50;;
16137;SDS011;8174;43.550;5.206;2022-09-16T15:35:52;6.70;;;2.45;;
16137;SDS011;8174;43.550;5.206;2022-09-16T15:38:21;2.67;;;2.20;;
16137;SDS011;8174;43.550;5.206;2022-09-16T15:40:59;5.28;;;2.45;;
16137;SDS011;8174;43.550;5.206;2022-09-16T15:43:27;6.63;;;2.53;;
16137;SDS011;8174;43.550;5.206;2022-09-16T15:45:56;4.80;;;2.28;;